sensor_id;sensor_type;location;lat;lon;timestamp;temperature;humidity
45319;DHT22;31057;48.498;32.260;2023-07-31T00:00:37;20.10;99.90
45319;DHT22;31057;48.498;32.260;2023-07-31T00:02:39;20.10;99.90
45319;DHT22;31057;48.498;32.260;2023-07-31T00:04:40;20.10;99.90
45319;DHT22;31057;48.498;32.260;2023-07-31T00:06:42;20.00;99.90
45319;DHT22;31057;48.498;32.260;2023-07-31T00:08:44;19.90;99.90
45319;DHT22;31057;48.498;32.260;2023-07-31T00:10:46;19.90;99.90
45319;DHT22;31057;48.498;32.260;2023-07-31T00:12:48;19.80;99.90
45319;DHT22;31057;48.498;32.260;2023-07-31T00:14:50;19.80;99.90
45319;DHT22;31057;48.498;32.260;2023-07-31T00:16:52;19.70;99.90
45319;DHT22;31057;48.498;32.260;2023-07-31T00:18:53;19.60;99.90
45319;DHT22;31057;48.498;32.260;2023-07-31T00:20:55;19.70;99.90
45319;DHT22;31057;48.498;32.260;2023-07-31T00:22:57;19.60;99.90
45319;DHT22;31057;48.498;32.260;2023-07-31T00:24:59;19.60;99.90
45319;DHT22;31057;48.498;32.260;2023-07-31T00:27:01;19.50;99.90
45319;DHT22;31057;48.498;32.260;2023-07-31T00:29:03;19.50;99.90
45319;DHT22;31057;48.498;32.260;2023-07-31T00:31:05;19.60;99.90
45319;DHT22;31057;48.498;32.260;2023-07-31T00:33:07;19.50;99.90
45319;DHT22;31057;48.498;32.260;2023-07-31T00:35:09;19.40;99.90
45319;DHT22;31057;48.498;32.260;2023-07-31T00:37:10;19.40;99.90
45319;DHT22;31057;48.498;32.260;2023-07-31T00:39:12;19.40;99.90
45319;DHT22;31057;48.498;32.260;2023-07-31T00:41:14;19.40;99.90
45319;DHT22;31057;48.498;32.260;2023-07-31T00:43:16;19.50;99.90
45319;DHT22;31057;48.498;32.260;2023-07-31T00:45:18;19.50;99.90
45319;DHT22;31057;48.498;32.260;2023-07-31T00:47:20;19.50;99.90
45319;DHT22;31057;48.498;32.260;2023-07-31T00:49:22;19.50;99.90
45319;DHT22;31057;48.498;32.260;2023-07-31T00:51:24;19.50;99.90
45319;DHT22;31057;48.498;32.260;2023-07-31T00:53:26;19.40;99.90
45319;DHT22;31057;48.498;32.260;2023-07-31T00:55:29;19.40;99.90
45319;DHT22;31057;48.498;32.260;2023-07-31T00:57:32;19.40;99.90
45319;DHT22;31057;48.498;32.260;2023-07-31T00:59:34;19.40;99.90
45319;DHT22;31057;48.498;32.260;2023-07-31T01:01:36;19.40;99.90
45319;DHT22;31057;48.498;32.260;2023-07-31T01:03:38;19.40;99.90
45319;DHT22;31057;48.498;32.260;2023-07-31T01:08:23;19.40;99.90
45319;DHT22;31057;48.498;32.260;2023-07-31T01:10:37;19.60;99.90
45319;DHT22;31057;48.498;32.260;2023-07-31T01:12:41;19.60;99.90
45319;DHT22;31057;48.498;32.260;2023-07-31T01:17:04;19.40;99.90
45319;DHT22;31057;48.498;32.260;2023-07-31T01:19:07;19.40;99.90
45319;DHT22;31057;48.498;32.260;2023-07-31T01:25:43;19.30;99.90
45319;DHT22;31057;48.498;32.260;2023-07-31T01:27:55;19.30;99.90
45319;DHT22;31057;48.498;32.260;2023-07-31T01:30:09;19.30;99.90
45319;DHT22;31057;48.498;32.260;2023-07-31T01:32:16;19.30;99.90
45319;DHT22;31057;48.498;32.260;2023-07-31T01:34:19;19.20;99.90
45319;DHT22;31057;48.498;32.260;2023-07-31T01:36:22;19.20;99.90
45319;DHT22;31057;48.498;32.260;2023-07-31T01:38:24;19.10;99.90
45319;DHT22;31057;48.498;32.260;2023-07-31T01:40:26;19.10;99.90
45319;DHT22;31057;48.498;32.260;2023-07-31T01:42:28;19.10;99.90
45319;DHT22;31057;48.498;32.260;2023-07-31T01:44:29;19.10;99.90
45319;DHT22;31057;48.498;32.260;2023-07-31T01:46:32;19.10;99.90
45319;DHT22;31057;48.498;32.260;2023-07-31T01:48:34;19.10;99.90
45319;DHT22;31057;48.498;32.260;2023-07-31T01:50:38;19.20;99.90
45319;DHT22;31057;48.498;32.260;2023-07-31T01:52:40;19.30;99.90
45319;DHT22;31057;48.498;32.260;2023-07-31T01:54:41;19.30;99.90
45319;DHT22;31057;48.498;32.260;2023-07-31T01:56:43;19.40;99.90
45319;DHT22;31057;48.498;32.260;2023-07-31T01:58:45;19.40;99.90
45319;DHT22;31057;48.498;32.260;2023-07-31T02:00:47;19.40;99.90
45319;DHT22;31057;48.498;32.260;2023-07-31T02:02:49;19.50;99.90
45319;DHT22;31057;48.498;32.260;2023-07-31T02:04:51;19.50;99.90
45319;DHT22;31057;48.498;32.260;2023-07-31T02:06:53;19.50;99.90
45319;DHT22;31057;48.498;32.260;2023-07-31T02:08:55;19.50;99.90
45319;DHT22;31057;48.498;32.260;2023-07-31T02:10:57;19.40;99.90
45319;DHT22;31057;48.498;32.260;2023-07-31T02:12:59;19.50;99.90
45319;DHT22;31057;48.498;32.260;2023-07-31T02:15:01;19.50;99.90
45319;DHT22;31057;48.498;32.260;2023-07-31T02:17:03;19.50;99.90
45319;DHT22;31057;48.498;32.260;2023-07-31T02:19:04;19.60;99.90
45319;DHT22;31057;48.498;32.260;2023-07-31T02:21:06;19.60;99.90
45319;DHT22;31057;48.498;32.260;2023-07-31T02:23:08;19.60;99.90
45319;DHT22;31057;48.498;32.260;2023-07-31T02:25:10;19.60;99.90
45319;DHT22;31057;48.498;32.260;2023-07-31T02:27:12;19.60;99.90
45319;DHT22;31057;48.498;32.260;2023-07-31T02:29:13;19.60;99.90
45319;DHT22;31057;48.498;32.260;2023-07-31T02:31:15;19.60;99.90
45319;DHT22;31057;48.498;32.260;2023-07-31T02:33:17;19.50;99.90
45319;DHT22;31057;48.498;32.260;2023-07-31T02:35:19;19.60;99.90
45319;DHT22;31057;48.498;32.260;2023-07-31T02:37:21;19.60;99.90
45319;DHT22;31057;48.498;32.260;2023-07-31T02:39:23;19.60;99.90
45319;DHT22;31057;48.498;32.260;2023-07-31T02:41:25;19.70;99.90
45319;DHT22;31057;48.498;32.260;2023-07-31T02:43:26;19.80;99.90
45319;DHT22;31057;48.498;32.260;2023-07-31T02:45:28;19.80;99.90
45319;DHT22;31057;48.498;32.260;2023-07-31T02:47:30;19.90;99.90
45319;DHT22;31057;48.498;32.260;2023-07-31T02:49:32;19.90;99.90
45319;DHT22;31057;48.498;32.260;2023-07-31T02:51:34;19.80;99.90
45319;DHT22;31057;48.498;32.260;2023-07-31T02:53:36;19.90;99.90
45319;DHT22;31057;48.498;32.260;2023-07-31T02:55:37;19.80;99.90
45319;DHT22;31057;48.498;32.260;2023-07-31T02:57:40;19.80;99.90
45319;DHT22;31057;48.498;32.260;2023-07-31T02:59:42;19.80;99.90
45319;DHT22;31057;48.498;32.260;2023-07-31T03:01:44;19.90;99.90
45319;DHT22;31057;48.498;32.260;2023-07-31T03:03:45;19.90;99.90
45319;DHT22;31057;48.498;32.260;2023-07-31T03:05:47;20.10;99.90
45319;DHT22;31057;48.498;32.260;2023-07-31T03:07:49;20.10;99.90
45319;DHT22;31057;48.498;32.260;2023-07-31T03:09:51;20.20;99.90
45319;DHT22;31057;48.498;32.260;2023-07-31T03:11:53;20.20;99.90
45319;DHT22;31057;48.498;32.260;2023-07-31T03:13:55;20.30;99.90
45319;DHT22;31057;48.498;32.260;2023-07-31T03:15:57;20.30;99.90
45319;DHT22;31057;48.498;32.260;2023-07-31T03:17:59;20.20;99.90
45319;DHT22;31057;48.498;32.260;2023-07-31T03:20:01;20.30;99.90
45319;DHT22;31057;48.498;32.260;2023-07-31T03:22:02;20.20;99.90
45319;DHT22;31057;48.498;32.260;2023-07-31T03:24:04;20.20;99.90
45319;DHT22;31057;48.498;32.260;2023-07-31T03:26:07;20.30;99.90
45319;DHT22;31057;48.498;32.260;2023-07-31T03:28:09;20.30;99.90
45319;DHT22;31057;48.498;32.260;2023-07-31T03:30:11;20.30;99.90
45319;DHT22;31057;48.498;32.260;2023-07-31T03:32:12;20.30;99.90
45319;DHT22;31057;48.498;32.260;2023-07-31T03:34:14;20.40;99.90
45319;DHT22;31057;48.498;32.260;2023-07-31T03:36:16;20.40;99.90
45319;DHT22;31057;48.498;32.260;2023-07-31T03:38:18;20.50;99.90
45319;DHT22;31057;48.498;32.260;2023-07-31T03:40:20;20.40;99.90
45319;DHT22;31057;48.498;32.260;2023-07-31T03:42:22;20.50;99.90
45319;DHT22;31057;48.498;32.260;2023-07-31T03:44:24;20.50;99.90
45319;DHT22;31057;48.498;32.260;2023-07-31T03:46:26;20.50;99.90
45319;DHT22;31057;48.498;32.260;2023-07-31T03:48:28;20.50;99.90
45319;DHT22;31057;48.498;32.260;2023-07-31T03:50:30;20.50;99.90
45319;DHT22;31057;48.498;32.260;2023-07-31T03:52:32;20.50;99.90
45319;DHT22;31057;48.498;32.260;2023-07-31T03:54:34;20.50;99.90
45319;DHT22;31057;48.498;32.260;2023-07-31T03:56:36;20.50;99.90
45319;DHT22;31057;48.498;32.260;2023-07-31T03:58:40;20.40;99.90
45319;DHT22;31057;48.498;32.260;2023-07-31T04:00:42;20.40;99.90
45319;DHT22;31057;48.498;32.260;2023-07-31T04:02:44;20.40;99.90
45319;DHT22;31057;48.498;32.260;2023-07-31T04:04:46;20.40;99.90
45319;DHT22;31057;48.498;32.260;2023-07-31T04:06:47;20.50;99.90
45319;DHT22;31057;48.498;32.260;2023-07-31T04:08:49;20.50;99.90
45319;DHT22;31057;48.498;32.260;2023-07-31T04:10:51;20.50;99.90
45319;DHT22;31057;48.498;32.260;2023-07-31T04:12:53;20.60;99.90
45319;DHT22;31057;48.498;32.260;2023-07-31T04:14:55;20.70;99.90
45319;DHT22;31057;48.498;32.260;2023-07-31T04:16:57;20.80;99.90
45319;DHT22;31057;48.498;32.260;2023-07-31T04:18:59;20.90;99.90
45319;DHT22;31057;48.498;32.260;2023-07-31T04:21:01;20.90;99.90
45319;DHT22;31057;48.498;32.260;2023-07-31T04:23:03;20.90;99.90
45319;DHT22;31057;48.498;32.260;2023-07-31T04:25:05;20.90;99.90
45319;DHT22;31057;48.498;32.260;2023-07-31T04:27:07;21.00;99.90
45319;DHT22;31057;48.498;32.260;2023-07-31T04:29:09;21.10;99.90
45319;DHT22;31057;48.498;32.260;2023-07-31T04:31:11;21.20;99.90
45319;DHT22;31057;48.498;32.260;2023-07-31T04:33:13;21.10;99.90
45319;DHT22;31057;48.498;32.260;2023-07-31T04:35:16;20.90;99.90
45319;DHT22;31057;48.498;32.260;2023-07-31T04:37:18;21.10;99.90
45319;DHT22;31057;48.498;32.260;2023-07-31T04:39:20;21.10;99.90
45319;DHT22;31057;48.498;32.260;2023-07-31T04:41:22;20.90;99.90
45319;DHT22;31057;48.498;32.260;2023-07-31T04:43:23;20.80;99.90
45319;DHT22;31057;48.498;32.260;2023-07-31T04:45:25;20.80;99.90
45319;DHT22;31057;48.498;32.260;2023-07-31T04:47:29;20.80;99.90
45319;DHT22;31057;48.498;32.260;2023-07-31T04:49:31;20.90;99.90
45319;DHT22;31057;48.498;32.260;2023-07-31T04:51:33;20.90;99.90
45319;DHT22;31057;48.498;32.260;2023-07-31T04:53:35;21.00;99.90
45319;DHT22;31057;48.498;32.260;2023-07-31T04:55:38;21.00;99.90
45319;DHT22;31057;48.498;32.260;2023-07-31T04:57:40;21.20;99.90
45319;DHT22;31057;48.498;32.260;2023-07-31T04:59:42;21.10;99.90
45319;DHT22;31057;48.498;32.260;2023-07-31T05:01:44;21.20;99.90
45319;DHT22;31057;48.498;32.260;2023-07-31T05:03:46;21.30;99.90
45319;DHT22;31057;48.498;32.260;2023-07-31T05:05:49;21.30;99.90
45319;DHT22;31057;48.498;32.260;2023-07-31T05:07:51;21.20;99.90
45319;DHT22;31057;48.498;32.260;2023-07-31T05:09:53;21.10;99.90
45319;DHT22;31057;48.498;32.260;2023-07-31T05:11:57;21.10;99.90
45319;DHT22;31057;48.498;32.260;2023-07-31T05:13:59;21.20;99.90
45319;DHT22;31057;48.498;32.260;2023-07-31T05:16:01;21.10;99.90
45319;DHT22;31057;48.498;32.260;2023-07-31T05:18:04;21.10;99.90
45319;DHT22;31057;48.498;32.260;2023-07-31T05:20:06;21.20;99.90
45319;DHT22;31057;48.498;32.260;2023-07-31T05:22:08;21.40;99.90
45319;DHT22;31057;48.498;32.260;2023-07-31T05:24:10;21.40;99.90
45319;DHT22;31057;48.498;32.260;2023-07-31T05:26:12;21.50;99.90
45319;DHT22;31057;48.498;32.260;2023-07-31T05:28:14;21.50;99.90
45319;DHT22;31057;48.498;32.260;2023-07-31T05:30:16;21.40;99.90
45319;DHT22;31057;48.498;32.260;2023-07-31T05:32:18;21.30;99.90
45319;DHT22;31057;48.498;32.260;2023-07-31T05:34:20;21.40;99.90
45319;DHT22;31057;48.498;32.260;2023-07-31T05:36:22;21.50;99.90
45319;DHT22;31057;48.498;32.260;2023-07-31T05:38:24;21.60;99.90
45319;DHT22;31057;48.498;32.260;2023-07-31T05:40:26;21.80;99.90
45319;DHT22;31057;48.498;32.260;2023-07-31T05:42:27;21.70;99.90
45319;DHT22;31057;48.498;32.260;2023-07-31T05:44:29;21.70;99.90
45319;DHT22;31057;48.498;32.260;2023-07-31T05:46:31;22.00;99.90
45319;DHT22;31057;48.498;32.260;2023-07-31T05:48:33;22.00;99.90
45319;DHT22;31057;48.498;32.260;2023-07-31T05:50:38;21.90;99.90
45319;DHT22;31057;48.498;32.260;2023-07-31T05:52:41;22.00;99.90
45319;DHT22;31057;48.498;32.260;2023-07-31T05:54:44;22.10;99.90
45319;DHT22;31057;48.498;32.260;2023-07-31T05:56:47;22.20;99.90
45319;DHT22;31057;48.498;32.260;2023-07-31T05:58:49;22.10;99.90
45319;DHT22;31057;48.498;32.260;2023-07-31T06:00:52;22.20;99.90
45319;DHT22;31057;48.498;32.260;2023-07-31T06:02:53;22.20;99.90
45319;DHT22;31057;48.498;32.260;2023-07-31T06:04:55;22.20;99.90
45319;DHT22;31057;48.498;32.260;2023-07-31T06:06:57;21.90;99.90
45319;DHT22;31057;48.498;32.260;2023-07-31T06:08:59;21.80;99.90
45319;DHT22;31057;48.498;32.260;2023-07-31T06:11:01;21.80;99.90
45319;DHT22;31057;48.498;32.260;2023-07-31T06:13:03;21.90;99.90
45319;DHT22;31057;48.498;32.260;2023-07-31T06:15:05;22.00;99.90
45319;DHT22;31057;48.498;32.260;2023-07-31T06:17:07;22.10;99.90
45319;DHT22;31057;48.498;32.260;2023-07-31T06:19:09;22.20;99.90
45319;DHT22;31057;48.498;32.260;2023-07-31T06:21:11;22.10;99.90
45319;DHT22;31057;48.498;32.260;2023-07-31T06:23:13;22.10;99.90
45319;DHT22;31057;48.498;32.260;2023-07-31T06:25:14;22.20;99.90
45319;DHT22;31057;48.498;32.260;2023-07-31T06:27:17;22.10;99.90
45319;DHT22;31057;48.498;32.260;2023-07-31T06:29:19;22.20;99.90
45319;DHT22;31057;48.498;32.260;2023-07-31T06:31:21;22.00;99.90
45319;DHT22;31057;48.498;32.260;2023-07-31T06:33:24;22.10;99.90
45319;DHT22;31057;48.498;32.260;2023-07-31T06:35:26;22.00;99.90
45319;DHT22;31057;48.498;32.260;2023-07-31T06:37:28;22.10;99.90
45319;DHT22;31057;48.498;32.260;2023-07-31T06:39:30;22.00;99.90
45319;DHT22;31057;48.498;32.260;2023-07-31T06:41:32;22.30;99.90
45319;DHT22;31057;48.498;32.260;2023-07-31T06:43:33;22.60;99.90
45319;DHT22;31057;48.498;32.260;2023-07-31T06:45:35;22.80;99.90
45319;DHT22;31057;48.498;32.260;2023-07-31T06:47:37;23.00;99.90
45319;DHT22;31057;48.498;32.260;2023-07-31T06:49:39;23.00;99.90
45319;DHT22;31057;48.498;32.260;2023-07-31T06:51:41;23.00;99.90
45319;DHT22;31057;48.498;32.260;2023-07-31T06:53:43;23.00;99.90
45319;DHT22;31057;48.498;32.260;2023-07-31T06:55:46;23.20;99.90
45319;DHT22;31057;48.498;32.260;2023-07-31T06:57:50;23.20;99.90
45319;DHT22;31057;48.498;32.260;2023-07-31T06:59:52;22.70;99.90
45319;DHT22;31057;48.498;32.260;2023-07-31T07:01:54;22.90;99.90
45319;DHT22;31057;48.498;32.260;2023-07-31T07:03:56;23.10;99.90
45319;DHT22;31057;48.498;32.260;2023-07-31T07:05:58;23.30;99.90
45319;DHT22;31057;48.498;32.260;2023-07-31T07:08:00;23.50;99.90
45319;DHT22;31057;48.498;32.260;2023-07-31T07:10:02;23.40;99.90
45319;DHT22;31057;48.498;32.260;2023-07-31T07:12:05;23.40;99.90
45319;DHT22;31057;48.498;32.260;2023-07-31T07:14:07;23.40;99.90
45319;DHT22;31057;48.498;32.260;2023-07-31T07:16:09;23.40;99.90
45319;DHT22;31057;48.498;32.260;2023-07-31T07:18:12;23.50;99.90
45319;DHT22;31057;48.498;32.260;2023-07-31T07:20:13;23.80;99.90
45319;DHT22;31057;48.498;32.260;2023-07-31T07:22:15;24.40;99.90
45319;DHT22;31057;48.498;32.260;2023-07-31T07:24:17;24.00;99.90
45319;DHT22;31057;48.498;32.260;2023-07-31T07:26:19;24.10;99.90
45319;DHT22;31057;48.498;32.260;2023-07-31T07:28:21;24.10;99.90
45319;DHT22;31057;48.498;32.260;2023-07-31T07:30:24;24.30;99.90
45319;DHT22;31057;48.498;32.260;2023-07-31T07:32:26;24.60;99.90
45319;DHT22;31057;48.498;32.260;2023-07-31T07:34:28;24.60;99.90
45319;DHT22;31057;48.498;32.260;2023-07-31T07:36:30;24.90;99.90
45319;DHT22;31057;48.498;32.260;2023-07-31T07:38:34;25.20;99.90
45319;DHT22;31057;48.498;32.260;2023-07-31T07:40:39;25.30;99.90
45319;DHT22;31057;48.498;32.260;2023-07-31T07:42:41;24.60;99.90
45319;DHT22;31057;48.498;32.260;2023-07-31T07:44:43;24.40;99.90
45319;DHT22;31057;48.498;32.260;2023-07-31T07:46:44;24.30;99.90
45319;DHT22;31057;48.498;32.260;2023-07-31T07:48:46;24.60;99.90
45319;DHT22;31057;48.498;32.260;2023-07-31T07:50:48;24.90;99.90
45319;DHT22;31057;48.498;32.260;2023-07-31T07:52:50;25.00;99.90
45319;DHT22;31057;48.498;32.260;2023-07-31T07:54:52;25.60;99.90
45319;DHT22;31057;48.498;32.260;2023-07-31T07:56:54;25.60;99.90
45319;DHT22;31057;48.498;32.260;2023-07-31T07:58:56;26.00;99.90
45319;DHT22;31057;48.498;32.260;2023-07-31T08:00:58;25.80;99.90
45319;DHT22;31057;48.498;32.260;2023-07-31T08:03:00;26.30;99.90
45319;DHT22;31057;48.498;32.260;2023-07-31T08:05:02;26.70;99.90
45319;DHT22;31057;48.498;32.260;2023-07-31T08:07:03;26.70;99.90
45319;DHT22;31057;48.498;32.260;2023-07-31T08:09:05;27.10;99.90
45319;DHT22;31057;48.498;32.260;2023-07-31T08:11:08;27.60;99.90
45319;DHT22;31057;48.498;32.260;2023-07-31T08:13:11;27.10;99.90
45319;DHT22;31057;48.498;32.260;2023-07-31T08:15:13;26.50;99.90
45319;DHT22;31057;48.498;32.260;2023-07-31T08:17:15;26.10;99.90
45319;DHT22;31057;48.498;32.260;2023-07-31T08:19:16;26.30;99.90
45319;DHT22;31057;48.498;32.260;2023-07-31T08:21:19;26.00;99.90
45319;DHT22;31057;48.498;32.260;2023-07-31T08:23:22;26.10;99.90
45319;DHT22;31057;48.498;32.260;2023-07-31T08:25:23;26.50;99.90
45319;DHT22;31057;48.498;32.260;2023-07-31T08:27:25;26.40;99.90
45319;DHT22;31057;48.498;32.260;2023-07-31T08:29:27;26.10;99.90
45319;DHT22;31057;48.498;32.260;2023-07-31T08:31:29;26.20;99.90
45319;DHT22;31057;48.498;32.260;2023-07-31T08:33:31;26.20;99.90
45319;DHT22;31057;48.498;32.260;2023-07-31T08:35:33;26.00;99.90
45319;DHT22;31057;48.498;32.260;2023-07-31T08:37:35;26.00;99.90
45319;DHT22;31057;48.498;32.260;2023-07-31T08:39:37;25.80;99.90
45319;DHT22;31057;48.498;32.260;2023-07-31T08:41:41;25.60;99.90
45319;DHT22;31057;48.498;32.260;2023-07-31T08:43:44;25.80;99.90
45319;DHT22;31057;48.498;32.260;2023-07-31T08:45:46;25.70;99.90
45319;DHT22;31057;48.498;32.260;2023-07-31T08:47:51;25.70;99.90
45319;DHT22;31057;48.498;32.260;2023-07-31T08:49:53;25.50;99.90
45319;DHT22;31057;48.498;32.260;2023-07-31T08:51:56;25.50;99.90
45319;DHT22;31057;48.498;32.260;2023-07-31T08:53:59;25.50;99.90
45319;DHT22;31057;48.498;32.260;2023-07-31T08:56:02;25.40;99.90
45319;DHT22;31057;48.498;32.260;2023-07-31T08:58:04;25.30;99.90
45319;DHT22;31057;48.498;32.260;2023-07-31T09:00:07;25.20;99.90
45319;DHT22;31057;48.498;32.260;2023-07-31T09:02:09;25.40;99.90
45319;DHT22;31057;48.498;32.260;2023-07-31T09:04:11;25.30;99.90
45319;DHT22;31057;48.498;32.260;2023-07-31T09:06:14;25.30;99.90
45319;DHT22;31057;48.498;32.260;2023-07-31T09:08:18;25.30;99.90
45319;DHT22;31057;48.498;32.260;2023-07-31T09:10:21;25.40;99.90
45319;DHT22;31057;48.498;32.260;2023-07-31T09:12:22;25.50;99.90
45319;DHT22;31057;48.498;32.260;2023-07-31T09:14:25;25.50;99.90
45319;DHT22;31057;48.498;32.260;2023-07-31T09:16:27;25.60;99.90
45319;DHT22;31057;48.498;32.260;2023-07-31T09:18:30;25.80;99.90
45319;DHT22;31057;48.498;32.260;2023-07-31T09:20:31;25.80;99.90
45319;DHT22;31057;48.498;32.260;2023-07-31T09:22:34;25.90;99.90
45319;DHT22;31057;48.498;32.260;2023-07-31T09:24:37;26.00;99.90
45319;DHT22;31057;48.498;32.260;2023-07-31T09:26:39;25.90;99.90
45319;DHT22;31057;48.498;32.260;2023-07-31T09:28:42;26.10;99.90
45319;DHT22;31057;48.498;32.260;2023-07-31T09:30:50;26.30;99.90
45319;DHT22;31057;48.498;32.260;2023-07-31T09:32:59;26.20;99.90
45319;DHT22;31057;48.498;32.260;2023-07-31T09:35:01;26.10;99.90
45319;DHT22;31057;48.498;32.260;2023-07-31T09:37:14;25.80;99.90
45319;DHT22;31057;48.498;32.260;2023-07-31T09:39:16;26.40;99.90
45319;DHT22;31057;48.498;32.260;2023-07-31T09:41:19;26.30;99.90
45319;DHT22;31057;48.498;32.260;2023-07-31T09:43:23;26.50;99.90
45319;DHT22;31057;48.498;32.260;2023-07-31T09:45:26;26.70;99.90
45319;DHT22;31057;48.498;32.260;2023-07-31T09:47:46;26.50;99.90
45319;DHT22;31057;48.498;32.260;2023-07-31T09:49:49;26.20;99.90
45319;DHT22;31057;48.498;32.260;2023-07-31T09:51:50;26.00;99.90
45319;DHT22;31057;48.498;32.260;2023-07-31T09:53:52;25.80;99.90
45319;DHT22;31057;48.498;32.260;2023-07-31T09:55:54;25.70;99.90
45319;DHT22;31057;48.498;32.260;2023-07-31T09:57:56;25.80;99.90
45319;DHT22;31057;48.498;32.260;2023-07-31T09:59:58;25.80;99.90
45319;DHT22;31057;48.498;32.260;2023-07-31T10:02:00;26.00;99.90
45319;DHT22;31057;48.498;32.260;2023-07-31T10:04:03;26.20;99.90
45319;DHT22;31057;48.498;32.260;2023-07-31T10:06:06;25.90;99.90
45319;DHT22;31057;48.498;32.260;2023-07-31T10:08:10;26.00;99.90
45319;DHT22;31057;48.498;32.260;2023-07-31T10:10:14;25.90;99.90
45319;DHT22;31057;48.498;32.260;2023-07-31T10:12:16;26.10;99.90
45319;DHT22;31057;48.498;32.260;2023-07-31T10:14:21;26.20;99.90
45319;DHT22;31057;48.498;32.260;2023-07-31T10:16:23;26.30;99.90
45319;DHT22;31057;48.498;32.260;2023-07-31T10:18:26;26.40;99.90
45319;DHT22;31057;48.498;32.260;2023-07-31T10:20:28;26.50;99.90
45319;DHT22;31057;48.498;32.260;2023-07-31T10:22:31;26.70;99.90
45319;DHT22;31057;48.498;32.260;2023-07-31T10:24:33;26.60;99.90
45319;DHT22;31057;48.498;32.260;2023-07-31T10:26:36;26.70;99.90
45319;DHT22;31057;48.498;32.260;2023-07-31T10:28:39;26.60;99.90
45319;DHT22;31057;48.498;32.260;2023-07-31T10:30:41;26.80;99.90
45319;DHT22;31057;48.498;32.260;2023-07-31T10:32:43;27.30;99.90
45319;DHT22;31057;48.498;32.260;2023-07-31T10:34:46;27.40;99.90
45319;DHT22;31057;48.498;32.260;2023-07-31T10:36:48;27.60;99.90
45319;DHT22;31057;48.498;32.260;2023-07-31T10:38:51;27.40;99.90
45319;DHT22;31057;48.498;32.260;2023-07-31T10:40:52;27.40;99.90
45319;DHT22;31057;48.498;32.260;2023-07-31T10:43:09;27.40;99.90
45319;DHT22;31057;48.498;32.260;2023-07-31T10:45:13;27.10;99.90
45319;DHT22;31057;48.498;32.260;2023-07-31T10:47:15;26.60;99.90
45319;DHT22;31057;48.498;32.260;2023-07-31T10:49:20;26.30;99.90
45319;DHT22;31057;48.498;32.260;2023-07-31T10:51:22;26.50;99.90
45319;DHT22;31057;48.498;32.260;2023-07-31T10:53:31;26.50;99.90
45319;DHT22;31057;48.498;32.260;2023-07-31T10:55:40;26.40;99.90
45319;DHT22;31057;48.498;32.260;2023-07-31T10:57:47;26.20;99.90
45319;DHT22;31057;48.498;32.260;2023-07-31T10:59:49;26.20;99.90
45319;DHT22;31057;48.498;32.260;2023-07-31T11:03:56;25.80;99.90
45319;DHT22;31057;48.498;32.260;2023-07-31T11:08:00;26.00;99.90
45319;DHT22;31057;48.498;32.260;2023-07-31T11:10:11;25.90;99.90
45319;DHT22;31057;48.498;32.260;2023-07-31T11:12:13;25.80;99.90
45319;DHT22;31057;48.498;32.260;2023-07-31T11:14:15;25.70;99.90
45319;DHT22;31057;48.498;32.260;2023-07-31T11:16:17;25.90;99.90
45319;DHT22;31057;48.498;32.260;2023-07-31T11:18:19;25.90;99.90
45319;DHT22;31057;48.498;32.260;2023-07-31T11:20:21;25.80;99.90
45319;DHT22;31057;48.498;32.260;2023-07-31T11:22:23;25.40;99.90
45319;DHT22;31057;48.498;32.260;2023-07-31T11:24:25;25.60;99.90
45319;DHT22;31057;48.498;32.260;2023-07-31T11:26:27;25.60;99.90
45319;DHT22;31057;48.498;32.260;2023-07-31T11:28:31;25.80;99.90
45319;DHT22;31057;48.498;32.260;2023-07-31T11:30:34;25.70;99.90
45319;DHT22;31057;48.498;32.260;2023-07-31T11:32:36;26.30;99.90
45319;DHT22;31057;48.498;32.260;2023-07-31T11:34:51;26.30;99.90
45319;DHT22;31057;48.498;32.260;2023-07-31T11:36:53;26.50;99.90
45319;DHT22;31057;48.498;32.260;2023-07-31T11:39:04;27.20;99.90
45319;DHT22;31057;48.498;32.260;2023-07-31T11:41:06;27.50;99.90
45319;DHT22;31057;48.498;32.260;2023-07-31T11:43:08;27.90;99.90
45319;DHT22;31057;48.498;32.260;2023-07-31T11:45:10;27.70;99.90
45319;DHT22;31057;48.498;32.260;2023-07-31T11:47:12;26.70;99.90
45319;DHT22;31057;48.498;32.260;2023-07-31T11:49:14;26.60;99.90
45319;DHT22;31057;48.498;32.260;2023-07-31T11:51:16;27.00;99.90
45319;DHT22;31057;48.498;32.260;2023-07-31T11:53:19;27.60;99.90
45319;DHT22;31057;48.498;32.260;2023-07-31T11:55:22;27.80;99.90
45319;DHT22;31057;48.498;32.260;2023-07-31T11:57:25;27.80;99.90
45319;DHT22;31057;48.498;32.260;2023-07-31T11:59:27;28.00;99.90
45319;DHT22;31057;48.498;32.260;2023-07-31T12:01:29;27.10;99.90
45319;DHT22;31057;48.498;32.260;2023-07-31T12:03:31;26.90;99.90
45319;DHT22;31057;48.498;32.260;2023-07-31T12:05:34;27.40;99.90
45319;DHT22;31057;48.498;32.260;2023-07-31T12:07:43;27.90;99.90
45319;DHT22;31057;48.498;32.260;2023-07-31T12:09:51;28.40;99.90
45319;DHT22;31057;48.498;32.260;2023-07-31T12:11:54;28.30;99.90
45319;DHT22;31057;48.498;32.260;2023-07-31T12:13:56;28.60;99.90
45319;DHT22;31057;48.498;32.260;2023-07-31T12:15:59;28.30;99.90
45319;DHT22;31057;48.498;32.260;2023-07-31T12:18:07;27.30;99.90
45319;DHT22;31057;48.498;32.260;2023-07-31T12:20:09;27.40;99.90
45319;DHT22;31057;48.498;32.260;2023-07-31T12:22:12;27.70;99.90
45319;DHT22;31057;48.498;32.260;2023-07-31T12:24:14;27.80;99.90
45319;DHT22;31057;48.498;32.260;2023-07-31T12:26:16;27.20;99.90
45319;DHT22;31057;48.498;32.260;2023-07-31T12:28:18;27.70;99.90
45319;DHT22;31057;48.498;32.260;2023-07-31T12:30:27;28.20;99.90
45319;DHT22;31057;48.498;32.260;2023-07-31T12:32:29;28.40;99.90
45319;DHT22;31057;48.498;32.260;2023-07-31T12:34:31;27.50;99.90
45319;DHT22;31057;48.498;32.260;2023-07-31T12:36:43;27.30;99.90
45319;DHT22;31057;48.498;32.260;2023-07-31T12:38:45;27.70;99.90
45319;DHT22;31057;48.498;32.260;2023-07-31T12:40:47;27.40;99.90
45319;DHT22;31057;48.498;32.260;2023-07-31T12:42:49;27.50;99.90
45319;DHT22;31057;48.498;32.260;2023-07-31T12:44:52;27.60;99.90
45319;DHT22;31057;48.498;32.260;2023-07-31T12:46:54;28.00;99.90
45319;DHT22;31057;48.498;32.260;2023-07-31T12:48:56;27.20;99.90
45319;DHT22;31057;48.498;32.260;2023-07-31T12:50:58;27.50;99.90
45319;DHT22;31057;48.498;32.260;2023-07-31T12:53:00;27.70;99.90
45319;DHT22;31057;48.498;32.260;2023-07-31T12:55:01;27.40;99.90